Time;durP1;ratioP1;P1;durP2;ratioP2;P2;SDS_P1;SDS_P2;PMS_P1;PMS_P2;Temp;Humidity;BMP_temperature;BMP_pressure;BME280_temperature;BME280_humidity;BME280_pressure;Samples;Min_cycle;Max_cycle;Signal;HPM_P1;HPM_P2
2021/08/18 00:02:24;;;;;;;12.10;8.73;;;;;;;14.20;86.03;100475.81;5006529;28;20064;-79
2021/08/18 00:04:53;;;;;;;13.35;9.70;;;;;;;14.36;85.01;100472.81;4995740;28;20053;-78
2021/08/18 00:07:20;;;;;;;14.52;9.57;;;;;;;14.42;84.69;100480.31;5005896;28;20136;-78
2021/08/18 00:09:49;;;;;;;13.02;9.98;;;;;;;14.44;84.04;100483.69;5014387;28;20053;-78
2021/08/18 00:12:16;;;;;;;15.73;9.50;;;;;;;14.52;83.87;100486.59;5025616;28;20064;-76
2021/08/18 00:14:44;;;;;;;12.57;9.23;;;;;;;14.54;83.65;100487.31;5019016;28;20052;-80
2021/08/18 00:17:11;;;;;;;12.02;9.38;;;;;;;14.57;83.79;100488.91;5036149;28;20147;-78
2021/08/18 00:19:38;;;;;;;13.23;9.20;;;;;;;14.60;83.15;100489.50;5014655;28;21019;-78
2021/08/18 00:22:06;;;;;;;14.23;8.85;;;;;;;14.66;82.74;100491.69;5037935;28;20088;-79
2021/08/18 00:24:34;;;;;;;13.50;9.52;;;;;;;14.66;82.86;100489.03;5018256;28;20133;-78
2021/08/18 00:27:01;;;;;;;14.10;9.23;;;;;;;14.53;83.13;100493.59;5017062;28;20045;-80
2021/08/18 00:29:39;;;;;;;12.40;9.32;;;;;;;14.50;83.84;100482.38;5017053;28;20504;-79
2021/08/18 00:32:08;;;;;;;11.30;9.63;;;;;;;14.64;83.02;100484.81;5028681;28;20072;-79
2021/08/18 00:34:35;;;;;;;15.57;9.00;;;;;;;14.73;82.20;100483.25;5019367;28;20065;-79
2021/08/18 00:37:03;;;;;;;11.02;8.27;;;;;;;14.67;82.72;100489.88;5022183;28;20115;-80
2021/08/18 00:39:30;;;;;;;10.57;8.65;;;;;;;14.74;82.34;100484.94;5003773;28;20140;-79
2021/08/18 00:41:58;;;;;;;12.98;9.80;;;;;;;14.75;81.75;100487.47;5010676;28;20132;-79
2021/08/18 00:44:26;;;;;;;11.43;9.27;;;;;;;14.73;82.33;100489.41;5016723;28;20136;-79
2021/08/18 00:46:55;;;;;;;12.38;9.35;;;;;;;14.78;81.77;100481.94;5015050;28;20128;-79
2021/08/18 00:49:23;;;;;;;12.00;9.48;;;;;;;14.71;82.18;100490.47;5028390;28;20054;-77
2021/08/18 00:51:53;;;;;;;11.15;8.70;;;;;;;14.48;83.05;100479.88;5029688;28;20864;-79
2021/08/18 00:54:21;;;;;;;11.82;8.77;;;;;;;14.49;83.63;100484.19;5014852;28;20150;-78
2021/08/18 00:56:49;;;;;;;13.30;10.02;;;;;;;14.47;83.66;100480.81;5021848;28;20157;-79
2021/08/18 00:59:16;;;;;;;14.18;10.07;;;;;;;14.43;83.81;100480.19;4997409;28;20133;-78
2021/08/18 01:01:44;;;;;;;15.15;10.43;;;;;;;14.37;84.02;100479.84;5024217;28;20080;-79
2021/08/18 01:04:12;;;;;;;12.40;10.50;;;;;;;14.23;84.54;100486.19;5008409;28;20467;-78
2021/08/18 01:06:42;;;;;;;13.55;9.93;;;;;;;14.22;85.13;100489.78;5008513;28;20145;-79
2021/08/18 01:09:11;;;;;;;13.63;10.80;;;;;;;14.21;84.66;100495.19;5018092;28;20368;-77
2021/08/18 01:11:39;;;;;;;17.67;10.50;;;;;;;14.14;85.57;100490.38;5024172;28;20465;-78
2021/08/18 01:14:07;;;;;;;13.85;11.20;;;;;;;14.03;86.39;100485.03;5008961;28;20081;-77
2021/08/18 01:16:36;;;;;;;13.50;10.30;;;;;;;14.03;86.51;100490.34;5006828;28;20517;-79
2021/08/18 01:19:05;;;;;;;13.02;10.73;;;;;;;14.12;85.93;100486.97;4997062;28;20049;-81
2021/08/18 01:21:38;;;;;;;13.73;10.68;;;;;;;14.24;85.31;100474.63;5036459;28;20543;-77
2021/08/18 01:24:05;;;;;;;15.70;10.93;;;;;;;14.25;85.56;100483.41;5010962;28;20059;-78
2021/08/18 01:26:32;;;;;;;14.05;10.55;;;;;;;14.25;85.32;100483.41;5028924;28;20072;-79
2021/08/18 01:29:00;;;;;;;12.90;10.13;;;;;;;14.32;85.33;100480.19;5003292;28;20147;-78
2021/08/18 01:31:27;;;;;;;10.60;9.50;;;;;;;14.31;85.57;100482.94;5022040;28;20200;-78
2021/08/18 01:33:58;;;;;;;14.35;10.07;;;;;;;14.29;85.28;100480.41;5029120;28;20121;-77
2021/08/18 01:36:25;;;;;;;14.93;10.70;;;;;;;14.28;85.32;100473.44;5025398;28;20081;-79
2021/08/18 01:38:52;;;;;;;12.55;10.20;;;;;;;14.35;84.68;100471.97;5002356;28;20509;-78
2021/08/18 01:41:19;;;;;;;12.45;9.57;;;;;;;14.50;83.72;100477.09;5029852;28;20073;-78
2021/08/18 01:43:46;;;;;;;14.35;11.50;;;;;;;14.49;83.43;100473.59;5025969;28;20041;-80
2021/08/18 01:46:14;;;;;;;13.68;10.38;;;;;;;14.51;83.57;100479.63;5026234;28;20049;-78
2021/08/18 01:48:42;;;;;;;11.10;9.98;;;;;;;14.46;84.08;100476.47;5019703;28;20167;-78
2021/08/18 01:51:10;;;;;;;13.77;11.13;;;;;;;14.45;83.80;100466.81;5020385;28;20057;-77
2021/08/18 01:53:43;;;;;;;11.00;9.82;;;;;;;14.47;84.19;100461.41;5021553;28;20573;-78
2021/08/18 01:56:12;;;;;;;13.05;9.98;;;;;;;14.53;83.93;100463.59;5007287;28;20049;-78
2021/08/18 01:58:39;;;;;;;14.52;9.88;;;;;;;14.36;84.07;100470.19;5029111;28;20063;-77
2021/08/18 02:01:13;;;;;;;12.88;9.90;;;;;;;14.41;84.67;100463.59;5024703;28;20144;-78
2021/08/18 02:03:41;;;;;;;13.48;9.65;;;;;;;14.39;84.46;100462.00;5008167;28;20136;-78
2021/08/18 02:06:08;;;;;;;14.05;9.70;;;;;;;14.39;83.94;100462.00;5026663;28;20077;-79
2021/08/18 02:08:36;;;;;;;11.60;10.05;;;;;;;14.15;85.02;100457.63;5010412;28;20140;-77
2021/08/18 02:11:03;;;;;;;13.82;11.02;;;;;;;14.12;85.17;100457.03;5030441;28;20474;-77
2021/08/18 02:13:31;;;;;;;15.20;10.48;;;;;;;14.15;85.20;100456.81;5021322;28;20073;-78
2021/08/18 02:15:58;;;;;;;11.73;9.57;;;;;;;14.16;84.72;100456.66;5026750;28;20053;-78
2021/08/18 02:18:26;;;;;;;11.15;9.90;;;;;;;14.13;85.77;100461.34;5024227;28;20148;-78
2021/08/18 02:20:53;;;;;;;11.80;10.55;;;;;;;14.10;85.47;100461.59;5026100;28;20155;-78
2021/08/18 02:23:20;;;;;;;14.55;10.93;;;;;;;14.10;85.56;100462.44;5022470;28;20048;-79
2021/08/18 02:25:49;;;;;;;16.55;10.88;;;;;;;14.19;85.32;100455.59;5026057;28;20077;-78
2021/08/18 02:28:16;;;;;;;15.10;10.65;;;;;;;14.08;85.51;100460.88;4999460;28;20414;-80
2021/08/18 02:30:44;;;;;;;15.43;11.50;;;;;;;14.10;85.11;100462.44;4994698;28;20049;-78
2021/08/18 02:33:11;;;;;;;10.38;9.27;;;;;;;14.24;85.14;100471.97;5020073;28;20042;-78
2021/08/18 02:35:39;;;;;;;11.15;9.48;;;;;;;14.25;84.75;100467.53;5023936;28;20054;-79
2021/08/18 02:38:07;;;;;;;12.18;10.20;;;;;;;14.34;84.37;100461.53;5019637;28;20132;-76
2021/08/18 02:40:34;;;;;;;14.48;10.18;;;;;;;14.34;84.23;100456.22;5027684;28;20531;-78
2021/08/18 02:43:02;;;;;;;10.77;9.57;;;;;;;14.15;84.88;100452.34;5018825;28;20500;-78
2021/08/18 02:45:32;;;;;;;11.95;10.23;;;;;;;14.30;84.42;100455.63;5019440;28;20050;-78
2021/08/18 02:48:00;;;;;;;15.32;11.00;;;;;;;14.21;84.25;100458.97;5008770;28;20041;-76
2021/08/18 02:50:29;;;;;;;12.63;9.68;;;;;;;14.05;85.48;100461.09;5037801;28;20068;-79
2021/08/18 02:52:56;;;;;;;11.30;9.52;;;;;;;14.12;85.54;100454.38;5006304;28;20055;-79
2021/08/18 02:55:24;;;;;;;14.35;10.77;;;;;;;14.14;85.25;100455.13;5002810;28;20066;-79
2021/08/18 02:57:51;;;;;;;13.75;10.05;;;;;;;14.14;85.23;100445.38;5020109;28;20132;-78
2021/08/18 03:00:18;;;;;;;12.85;9.82;;;;;;;14.17;84.93;100449.56;5027944;28;20046;-78
2021/08/18 03:02:45;;;;;;;11.23;9.68;;;;;;;14.12;85.80;100455.22;4998665;28;20453;-76
2021/08/18 03:05:13;;;;;;;14.43;10.30;;;;;;;14.07;85.62;100446.78;5026015;28;20085;-77
2021/08/18 03:07:41;;;;;;;12.85;10.63;;;;;;;14.06;85.33;100449.56;5026574;28;20408;-79
2021/08/18 03:10:09;;;;;;;12.57;9.88;;;;;;;14.14;86.04;100455.97;5025667;28;20148;-77
2021/08/18 03:12:37;;;;;;;11.57;9.70;;;;;;;14.19;85.13;100448.50;5020601;28;20160;-78
2021/08/18 03:15:05;;;;;;;11.30;9.65;;;;;;;14.17;85.42;100458.34;5030003;28;20049;-77
2021/08/18 03:17:32;;;;;;;12.32;10.32;;;;;;;14.23;84.81;100454.41;5006060;28;20066;-78
2021/08/18 03:20:00;;;;;;;14.90;10.57;;;;;;;14.21;84.90;100450.19;5024914;28;20092;-79
2021/08/18 03:22:27;;;;;;;14.13;11.27;;;;;;;14.16;85.63;100451.38;5010952;28;20080;-79
2021/08/18 03:24:54;;;;;;;13.77;10.93;;;;;;;14.12;85.86;100457.03;5012306;28;20501;-77
2021/08/18 03:27:22;;;;;;;14.40;10.73;;;;;;;14.09;86.23;100467.84;5022747;28;20385;-78
2021/08/18 03:29:50;;;;;;;13.05;10.13;;;;;;;14.09;86.18;100458.09;5023738;28;20146;-78
2021/08/18 03:32:17;;;;;;;12.80;10.00;;;;;;;14.14;85.85;100458.59;5017645;28;20058;-79
2021/08/18 03:34:44;;;;;;;11.70;10.23;;;;;;;14.21;86.14;100466.06;5025386;28;20053;-77
2021/08/18 03:37:12;;;;;;;14.77;10.63;;;;;;;14.22;85.71;100465.09;5025971;28;20180;-80
2021/08/18 03:39:39;;;;;;;12.70;10.60;;;;;;;14.10;86.42;100465.09;5005423;28;20422;-79
2021/08/18 03:42:06;;;;;;;15.98;11.32;;;;;;;14.02;87.08;100456.88;5018760;28;20132;-79
2021/08/18 03:44:33;;;;;;;16.25;10.68;;;;;;;14.12;86.69;100454.38;5022468;28;20046;-77
2021/08/18 03:47:00;;;;;;;14.32;10.13;;;;;;;14.15;86.37;100457.63;5029212;28;20063;-81
2021/08/18 03:49:28;;;;;;;12.55;10.80;;;;;;;14.18;86.21;100457.41;5028394;28;20144;-79
2021/08/18 03:51:55;;;;;;;13.82;11.20;;;;;;;14.21;86.41;100460.78;5022676;28;20064;-76
2021/08/18 03:54:22;;;;;;;11.88;9.93;;;;;;;14.30;86.02;100465.38;5028594;28;20069;-78
2021/08/18 03:56:49;;;;;;;10.75;9.52;;;;;;;14.26;85.59;100464.75;5008773;28;20118;-81
2021/08/18 03:59:17;;;;;;;16.00;11.52;;;;;;;14.27;86.13;100465.59;5030570;28;20057;-80
2021/08/18 04:01:44;;;;;;;13.88;10.05;;;;;;;14.30;85.60;100463.56;5021856;28;20164;-77
2021/08/18 04:04:12;;;;;;;13.15;10.45;;;;;;;14.16;86.75;100464.63;5022016;28;20144;-79
2021/08/18 04:06:39;;;;;;;14.27;10.43;;;;;;;14.21;86.60;100461.63;5024683;28;20061;-78
2021/08/18 04:09:07;;;;;;;11.38;10.27;;;;;;;14.22;86.21;100457.16;5012158;28;20049;-78
2021/08/18 04:11:34;;;;;;;12.25;10.32;;;;;;;14.21;86.60;100461.63;5028325;28;20063;-78
2021/08/18 04:14:02;;;;;;;12.18;10.05;;;;;;;14.14;86.78;100463.91;5034551;28;20369;-78
2021/08/18 04:16:30;;;;;;;13.73;9.25;;;;;;;14.17;86.47;100461.00;5021023;28;20111;-77
2021/08/18 04:18:57;;;;;;;13.68;9.98;;;;;;;14.03;88.03;100463.03;5025043;28;20063;-81
2021/08/18 04:21:24;;;;;;;10.20;9.20;;;;;;;14.09;87.64;100463.38;5021098;28;20049;-80
2021/08/18 04:23:52;;;;;;;12.35;10.30;;;;;;;14.19;87.12;100464.41;5023088;28;20133;-81
2021/08/18 04:26:19;;;;;;;17.65;11.32;;;;;;;14.27;86.56;100462.94;5012309;28;20132;-79
2021/08/18 04:28:47;;;;;;;14.38;10.85;;;;;;;14.34;86.24;100472.13;5001199;28;20104;-79
2021/08/18 04:31:15;;;;;;;13.80;9.73;;;;;;;14.16;87.34;100461.97;5030969;28;20392;-80
2021/08/18 04:33:42;;;;;;;13.15;10.88;;;;;;;14.17;87.14;100476.03;5021843;28;20064;-80
2021/08/18 04:36:09;;;;;;;13.23;10.65;;;;;;;14.17;87.03;100473.41;5026541;28;20660;-77
2021/08/18 04:38:36;;;;;;;12.38;10.43;;;;;;;14.25;87.16;100472.81;5019616;28;20133;-83
2021/08/18 04:41:04;;;;;;;13.38;10.10;;;;;;;14.21;87.09;100472.22;5023869;28;20049;-78
2021/08/18 04:43:31;;;;;;;13.82;9.43;;;;;;;14.32;86.27;100474.88;5013450;28;20144;-79
2021/08/18 04:45:58;;;;;;;10.77;9.43;;;;;;;14.37;85.54;100475.38;5025742;28;20140;-83
2021/08/18 04:48:27;;;;;;;11.43;9.90;;;;;;;14.40;85.21;100480.41;5019226;28;20505;-80
2021/08/18 04:50:54;;;;;;;12.55;9.20;;;;;;;14.48;84.92;100490.47;5014826;28;20064;-79
2021/08/18 04:53:21;;;;;;;16.00;9.07;;;;;;;14.37;85.35;100485.13;5009706;28;20064;-81
2021/08/18 04:55:49;;;;;;;14.15;9.40;;;;;;;14.33;85.69;100483.69;5020600;28;20145;-81
2021/08/18 04:58:16;;;;;;;11.43;9.60;;;;;;;14.39;85.30;100491.13;5015511;28;20069;-80
2021/08/18 05:00:47;;;;;;;11.88;8.85;;;;;;;14.37;85.66;100493.06;5013291;28;20160;-83
2021/08/18 05:03:16;;;;;;;11.07;9.88;;;;;;;14.45;85.17;100488.00;5027640;28;20065;-86
2021/08/18 05:05:44;;;;;;;12.02;8.55;;;;;;;14.40;84.98;100490.16;5038766;28;20061;-85
2021/08/18 05:08:14;;;;;;;17.63;8.73;;;;;;;14.49;84.78;100496.59;5030600;28;20049;-86
2021/08/18 05:10:45;;;;;;;13.25;7.57;;;;;;;14.46;84.34;100496.81;5047078;28;20041;-87
2021/08/18 05:13:15;;;;;;;13.30;7.72;;;;;;;14.59;83.94;100505.50;5017578;28;20057;-83
2021/08/18 05:15:51;;;;;;;10.13;7.82;;;;;;;14.75;82.76;100502.53;5035744;28;20128;-88
2021/08/18 05:18:25;;;;;;;10.90;7.68;;;;;;;14.78;82.66;100511.09;5025983;28;20393;-83
2021/08/18 05:20:54;;;;;;;11.00;8.07;;;;;;;15.04;81.01;100508.16;5025975;28;20053;-87
2021/08/18 05:23:21;;;;;;;13.80;8.02;;;;;;;15.09;80.13;100516.63;5019163;28;20066;-82
2021/08/18 05:25:48;;;;;;;12.27;7.38;;;;;;;15.24;79.57;100510.09;5002988;28;20108;-85
2021/08/18 05:28:18;;;;;;;8.75;7.40;;;;;;;15.73;77.78;100515.91;5030471;28;20076;-85
2021/08/18 05:30:45;;;;;;;10.40;6.90;;;;;;;16.40;75.21;100510.25;5023517;28;20118;-81
2021/08/18 05:33:12;;;;;;;11.98;6.47;;;;;;;16.79;72.25;100508.66;5011222;28;20135;-83
2021/08/18 05:35:40;;;;;;;9.10;6.97;;;;;;;16.90;71.37;100511.25;5010227;28;20073;-83
2021/08/18 05:38:07;;;;;;;11.50;7.03;;;;;;;16.69;72.29;100515.72;5010083;28;20097;-84
2021/08/18 05:40:34;;;;;;;9.02;6.72;;;;;;;16.40;72.92;100510.25;5013732;28;20416;-83
2021/08/18 05:43:02;;;;;;;9.90;6.78;;;;;;;15.94;75.50;100509.66;5006811;28;20059;-85
2021/08/18 05:45:29;;;;;;;10.55;7.60;;;;;;;16.10;75.07;100522.50;5035331;28;20156;-86
2021/08/18 05:47:57;;;;;;;12.93;7.43;;;;;;;15.67;76.52;100512.78;5027947;28;20095;-83
2021/08/18 05:50:24;;;;;;;11.68;7.57;;;;;;;15.72;77.33;100523.03;5022501;28;20104;-82
2021/08/18 05:52:51;;;;;;;11.50;6.97;;;;;;;16.00;76.70;100516.28;5026380;28;20071;-82
2021/08/18 05:55:19;;;;;;;10.98;7.72;;;;;;;16.25;75.53;100522.16;5011895;28;20057;-84
2021/08/18 05:57:46;;;;;;;10.90;6.70;;;;;;;16.09;75.10;100517.31;5014655;28;20149;-81
2021/08/18 06:00:15;;;;;;;10.50;7.03;;;;;;;16.14;75.32;100517.78;5018764;28;20129;-79
2021/08/18 06:02:47;;;;;;;13.35;7.15;;;;;;;16.24;74.91;100521.34;5014552;28;20076;-80
2021/08/18 06:05:14;;;;;;;8.57;6.70;;;;;;;16.50;73.99;100510.31;5022286;28;20380;-81
2021/08/18 06:07:42;;;;;;;13.13;6.97;;;;;;;17.07;71.58;100523.06;5019596;28;20349;-77
2021/08/18 06:10:11;;;;;;;8.93;6.72;;;;;;;18.14;68.21;100513.41;5026832;28;20116;-77
2021/08/18 06:12:39;;;;;;;11.93;6.13;;;;;;;18.95;63.94;100508.44;5021837;28;20096;-78
2021/08/18 06:15:07;;;;;;;8.55;5.32;;;;;;;19.71;61.36;100518.00;5028841;28;20123;-77
2021/08/18 06:17:34;;;;;;;11.35;5.82;;;;;;;20.45;57.76;100501.59;4987183;28;21210;-77
2021/08/18 06:20:05;;;;;;;9.13;5.88;;;;;;;21.51;54.07;100511.16;5043361;28;20404;-76
2021/08/18 06:22:33;;;;;;;10.10;5.30;;;;;;;22.16;52.01;100512.09;5026365;28;20103;-78
2021/08/18 06:25:03;;;;;;;8.38;5.50;;;;;;;21.63;53.28;100513.34;5038657;28;20068;-77
2021/08/18 06:27:30;;;;;;;10.25;5.18;;;;;;;22.43;51.79;100502.84;5024584;28;20077;-78
2021/08/18 06:29:58;;;;;;;9.93;5.93;;;;;;;21.16;54.99;100508.53;5008188;28;20394;-77
2021/08/18 06:32:25;;;;;;;9.48;5.18;;;;;;;21.22;54.80;100512.38;5002909;28;20057;-77
2021/08/18 06:34:53;;;;;;;9.02;5.43;;;;;;;21.20;54.47;100511.69;5013148;28;20053;-76
2021/08/18 06:37:35;;;;;;;10.55;5.15;;;;;;;22.24;52.50;100498.69;5014720;28;20053;-75
2021/08/18 06:40:03;;;;;;;11.85;4.45;;;;;;;21.84;52.34;100514.69;5013373;28;20041;-75
2021/08/18 06:42:31;;;;;;;9.35;5.85;;;;;;;20.80;54.89;100498.97;5021676;28;20378;-76
2021/08/18 06:44:58;;;;;;;10.38;4.63;;;;;;;20.23;56.67;100502.94;5021222;28;20107;-75
2021/08/18 06:47:25;;;;;;;12.80;5.13;;;;;;;20.29;57.02;100504.16;5014624;28;20045;-77
2021/08/18 06:49:52;;;;;;;8.23;5.38;;;;;;;20.72;55.45;100510.47;5021549;28;20486;-76
2021/08/18 06:52:19;;;;;;;5.40;4.43;;;;;;;21.18;53.96;100503.00;5005066;28;20144;-77
2021/08/18 06:54:47;;;;;;;7.05;4.32;;;;;;;20.72;55.19;100499.78;5013501;28;20049;-75
2021/08/18 06:57:14;;;;;;;12.50;5.40;;;;;;;21.04;55.42;100501.78;5020503;28;20148;-76
2021/08/18 06:59:41;;;;;;;10.60;5.45;;;;;;;21.52;52.93;100504.78;5003819;28;20045;-76
2021/08/18 07:02:08;;;;;;;8.82;3.72;;;;;;;22.19;51.12;100492.13;5024029;28;20065;-74
2021/08/18 07:04:36;;;;;;;8.30;3.95;;;;;;;23.34;46.92;100498.84;5001521;28;20049;-75
2021/08/18 07:07:03;;;;;;;9.57;3.92;;;;;;;24.09;45.12;100497.31;5019544;28;20098;-77
2021/08/18 07:09:31;;;;;;;6.50;3.83;;;;;;;24.47;44.33;100496.34;5041637;28;20060;-75
2021/08/18 07:11:58;;;;;;;9.45;4.13;;;;;;;25.16;42.73;100493.34;4999468;28;20059;-75
2021/08/18 07:14:26;;;;;;;8.15;3.67;;;;;;;24.55;43.83;100495.41;5018942;28;20069;-74
2021/08/18 07:16:53;;;;;;;6.18;3.33;;;;;;;26.41;39.49;100490.25;5033546;28;20057;-76
2021/08/18 07:19:20;;;;;;;8.13;3.38;;;;;;;26.83;38.44;100487.59;5030366;28;20100;-76
2021/08/18 07:21:47;;;;;;;6.18;3.13;;;;;;;27.90;35.90;100495.91;5004317;28;20057;-76
2021/08/18 07:24:15;;;;;;;8.90;3.38;;;;;;;26.00;39.38;100498.22;5027246;28;20049;-76
2021/08/18 07:26:42;;;;;;;6.07;3.42;;;;;;;25.49;40.20;100492.94;5010525;28;20148;-75
2021/08/18 07:29:09;;;;;;;5.65;3.78;;;;;;;24.70;41.60;100490.88;5013903;28;20115;-75
2021/08/18 07:31:37;;;;;;;5.78;3.83;;;;;;;25.13;40.79;100493.75;5009028;28;20073;-75
2021/08/18 07:34:04;;;;;;;10.25;3.47;;;;;;;23.60;43.94;100490.47;5003391;28;20135;-74
2021/08/18 07:36:31;;;;;;;11.48;3.47;;;;;;;22.37;46.60;100499.97;5027551;28;20075;-77
2021/08/18 07:38:59;;;;;;;10.57;3.28;;;;;;;21.62;48.95;100500.13;5004392;28;20123;-75
2021/08/18 07:41:28;;;;;;;10.75;4.32;;;;;;;20.84;51.74;100495.81;5040929;28;20045;-75
2021/08/18 07:43:55;;;;;;;9.50;3.47;;;;;;;21.85;49.50;100506.53;5043891;28;20488;-74
2021/08/18 07:46:22;;;;;;;6.93;3.95;;;;;;;20.68;51.47;100499.25;5040590;28;20135;-76
2021/08/18 07:48:49;;;;;;;6.22;3.92;;;;;;;19.39;55.46;100513.97;5032436;28;20045;-75
2021/08/18 07:51:17;;;;;;;8.38;4.03;;;;;;;18.74;58.25;100512.34;5029996;28;20392;-75
2021/08/18 07:53:44;;;;;;;10.77;4.60;;;;;;;18.44;59.85;100506.22;5001979;28;20505;-75
2021/08/18 07:56:11;;;;;;;9.10;3.83;;;;;;;18.34;60.01;100508.06;5027893;28;20050;-75
2021/08/18 07:58:38;;;;;;;11.75;3.80;;;;;;;18.25;60.19;100517.75;5041956;28;20099;-75
2021/08/18 08:01:06;;;;;;;8.13;3.85;;;;;;;17.93;61.47;100510.09;5025551;28;20051;-75
2021/08/18 08:03:33;;;;;;;5.63;3.15;;;;;;;18.16;61.74;100510.63;5024737;28;20096;-76
2021/08/18 08:06:00;;;;;;;7.63;3.42;;;;;;;18.48;59.84;100508.44;5006815;28;20084;-75
2021/08/18 08:08:28;;;;;;;6.65;3.22;;;;;;;18.42;60.18;100508.19;5018131;28;20060;-76
2021/08/18 08:10:55;;;;;;;6.65;3.47;;;;;;;19.01;57.85;100495.53;5030514;28;20144;-74
2021/08/18 08:13:22;;;;;;;7.30;3.15;;;;;;;19.15;58.20;100495.88;5023408;28;20078;-78
2021/08/18 08:15:49;;;;;;;8.98;3.50;;;;;;;18.83;59.18;100500.81;5034894;28;20123;-76
2021/08/18 08:18:17;;;;;;;5.72;3.28;;;;;;;18.56;59.66;100499.75;5023643;28;20440;-77
2021/08/18 08:20:44;;;;;;;4.65;2.97;;;;;;;18.14;60.51;100502.75;5001791;28;20096;-77
2021/08/18 08:23:11;;;;;;;3.80;3.05;;;;;;;17.91;61.36;100502.22;5030221;28;20045;-79
2021/08/18 08:25:38;;;;;;;6.38;3.90;;;;;;;17.94;61.88;100501.94;5024519;28;20067;-75
2021/08/18 08:28:06;;;;;;;5.70;3.17;;;;;;;19.26;58.76;100491.31;5019027;28;20069;-76
2021/08/18 08:30:34;;;;;;;5.32;3.33;;;;;;;22.02;50.95;100487.75;5028886;28;20120;-76
2021/08/18 08:33:02;;;;;;;6.40;3.40;;;;;;;22.21;49.15;100474.88;5017737;28;20045;-75
2021/08/18 08:35:30;;;;;;;6.72;3.30;;;;;;;22.09;49.82;100481.53;5034107;28;20486;-76
2021/08/18 08:37:57;;;;;;;5.05;2.97;;;;;;;22.09;49.49;100488.75;5036321;28;20096;-77
2021/08/18 08:40:24;;;;;;;6.90;2.50;;;;;;;21.85;49.83;100486.94;5003200;28;20406;-75
2021/08/18 08:42:51;;;;;;;4.55;2.97;;;;;;;21.16;51.61;100480.88;5019162;28;20053;-77
2021/08/18 08:45:19;;;;;;;5.45;2.67;;;;;;;20.51;53.13;100486.78;5012542;28;20038;-75
2021/08/18 08:47:46;;;;;;;6.45;2.30;;;;;;;20.81;53.05;100479.25;5023586;28;20080;-78
2021/08/18 08:50:14;;;;;;;9.27;3.00;;;;;;;21.07;51.37;100488.03;5027564;28;20045;-77
2021/08/18 08:52:42;;;;;;;8.25;2.53;;;;;;;20.48;53.14;100484.41;5018486;28;20176;-77
2021/08/18 08:55:10;;;;;;;4.03;2.50;;;;;;;20.87;52.66;100483.97;4994354;28;20101;-76
2021/08/18 08:57:52;;;;;;;6.05;3.05;;;;;;;20.71;53.00;100482.03;4996189;28;20058;-75
2021/08/18 09:00:21;;;;;;;12.27;2.60;;;;;;;20.11;55.29;100496.16;5019179;28;20050;-77
2021/08/18 09:03:16;;;;;;;5.25;2.45;;;;;;;20.05;55.30;100488.78;4994819;28;20054;-79
2021/08/18 09:05:45;;;;;;;8.07;2.92;;;;;;;20.81;53.54;100493.47;5031570;28;20136;-77
2021/08/18 09:08:15;;;;;;;9.63;2.45;;;;;;;21.41;51.81;100487.19;5016509;28;20081;-76
2021/08/18 09:11:13;;;;;;;4.28;2.15;;;;;;;21.24;52.20;100483.59;5019214;28;20062;-78
2021/08/18 09:13:43;;;;;;;6.13;2.83;;;;;;;20.33;55.25;100489.47;5007643;28;20061;-76
2021/08/18 09:16:11;;;;;;;5.85;2.83;;;;;;;20.55;54.84;100482.78;5018076;28;20055;-80
2021/08/18 09:18:52;;;;;;;4.93;2.55;;;;;;;21.65;51.60;100481.03;4995120;28;20144;-76
2021/08/18 09:21:37;;;;;;;3.78;2.33;;;;;;;21.81;51.38;100482.91;5028236;28;20042;-77
2021/08/18 09:24:24;;;;;;;7.20;2.20;;;;;;;21.23;52.94;100480.06;4994321;28;20769;-75
2021/08/18 09:26:54;;;;;;;4.78;2.28;;;;;;;20.83;54.28;100478.09;5010898;28;20038;-78
2021/08/18 09:29:44;;;;;;;3.35;2.58;;;;;;;21.75;51.51;100471.00;5029202;28;20136;-75
2021/08/18 09:32:20;;;;;;;6.78;2.28;;;;;;;21.47;51.58;100465.94;4987376;28;20129;-78
2021/08/18 09:34:58;;;;;;;9.38;2.20;;;;;;;21.02;53.33;100470.81;5037769;28;20135;-76
2021/08/18 09:37:27;;;;;;;3.25;2.30;;;;;;;20.91;53.24;100470.09;5020269;28;20142;-76
2021/08/18 09:39:55;;;;;;;4.03;2.30;;;;;;;20.47;54.87;100466.66;5035554;28;20457;-77
2021/08/18 09:42:26;;;;;;;4.65;2.42;;;;;;;20.05;55.56;100472.75;4998552;28;20065;-76
2021/08/18 09:45:16;;;;;;;4.15;2.25;;;;;;;19.72;56.52;100467.13;5027345;28;20123;-78
2021/08/18 09:47:59;;;;;;;3.42;2.28;;;;;;;19.88;56.32;100469.09;5019582;28;20054;-76
2021/08/18 09:50:54;;;;;;;4.63;2.17;;;;;;;19.83;57.24;100467.88;5036640;28;20086;-77
2021/08/18 09:53:41;;;;;;;3.65;2.25;;;;;;;20.37;55.44;100461.44;5004562;28;20537;-76
2021/08/18 09:56:12;;;;;;;6.85;2.42;;;;;;;20.52;54.88;100463.56;5023066;28;20067;-76
2021/08/18 09:58:46;;;;;;;4.75;2.10;;;;;;;20.96;54.20;100458.91;5009070;28;20057;-76
2021/08/18 10:01:15;;;;;;;3.60;2.05;;;;;;;21.82;52.67;100463.97;5020756;28;20128;-77
2021/08/18 10:03:48;;;;;;;4.45;2.17;;;;;;;21.56;53.06;100465.94;5005836;28;20050;-78
2021/08/18 10:06:17;;;;;;;5.10;2.35;;;;;;;21.94;52.07;100461.81;5025136;28;20139;-77
2021/08/18 10:08:45;;;;;;;3.00;1.98;;;;;;;21.86;51.99;100456.44;5025689;28;20432;-77
2021/08/18 10:11:15;;;;;;;4.03;2.08;;;;;;;22.02;51.99;100452.91;4985635;28;20136;-76
2021/08/18 10:13:43;;;;;;;3.95;2.15;;;;;;;21.85;51.24;100457.44;4993083;28;20145;-76
2021/08/18 10:16:11;;;;;;;2.78;1.88;;;;;;;21.78;51.92;100446.53;5034593;28;20562;-76
2021/08/18 10:18:41;;;;;;;4.68;2.13;;;;;;;21.96;50.91;100439.16;5021599;28;20053;-76
2021/08/18 10:21:17;;;;;;;3.47;1.85;;;;;;;22.23;50.58;100438.00;5003161;28;20132;-76
2021/08/18 10:23:54;;;;;;;3.35;1.83;;;;;;;21.91;50.05;100438.84;5017754;28;20510;-77
2021/08/18 10:26:34;;;;;;;2.65;2.00;;;;;;;21.41;52.04;100436.31;5007962;28;20073;-77
2021/08/18 10:29:19;;;;;;;3.50;2.00;;;;;;;21.56;51.42;100445.34;5011927;28;20056;-80
2021/08/18 10:31:47;;;;;;;5.32;2.35;;;;;;;21.44;50.89;100433.31;5039641;28;20169;-77
2021/08/18 10:34:21;;;;;;;4.10;1.83;;;;;;;21.89;50.16;100427.47;5021814;28;20612;-78
2021/08/18 10:36:50;;;;;;;5.40;2.17;;;;;;;21.90;49.26;100433.66;5004018;28;20045;-76
2021/08/18 10:39:18;;;;;;;4.43;3.20;;;;;;;21.59;50.04;100436.16;5018038;28;20046;-76
2021/08/18 10:42:17;;;;;;;6.47;2.78;;;;;;;21.99;49.82;100428.13;5011617;28;20089;-78
2021/08/18 10:44:48;;;;;;;3.63;1.92;;;;;;;22.31;47.17;100431.78;5033037;28;20050;-77
2021/08/18 10:47:19;;;;;;;7.25;2.25;;;;;;;22.75;45.97;100434.81;5027292;28;20160;-77
2021/08/18 10:50:16;;;;;;;3.28;1.98;;;;;;;22.73;45.27;100423.41;5004786;28;20156;-77
2021/08/18 10:52:43;;;;;;;4.95;1.80;;;;;;;22.91;45.14;100417.00;4993784;28;20133;-77
2021/08/18 10:55:22;;;;;;;2.85;2.08;;;;;;;22.79;45.75;100427.28;5027161;28;20052;-76
2021/08/18 10:57:58;;;;;;;4.57;2.05;;;;;;;22.99;45.08;100419.66;5018266;28;20053;-76
2021/08/18 11:00:38;;;;;;;3.67;1.50;;;;;;;22.86;45.57;100422.03;5002125;28;20227;-76
2021/08/18 11:03:07;;;;;;;2.83;1.88;;;;;;;23.00;45.22;100419.47;5022891;28;20034;-77
2021/08/18 11:05:37;;;;;;;3.63;1.77;;;;;;;23.14;44.32;100423.25;4993875;28;20096;-75
2021/08/18 11:08:06;;;;;;;4.22;2.00;;;;;;;23.46;43.60;100416.84;4997844;28;20059;-75
2021/08/18 11:10:36;;;;;;;3.28;1.50;;;;;;;22.73;45.56;100422.59;5030584;28;20156;-75
2021/08/18 11:13:06;;;;;;;2.95;1.80;;;;;;;22.48;46.35;100424.53;5014789;28;20516;-76
2021/08/18 11:15:33;;;;;;;2.35;1.73;;;;;;;22.60;45.93;100419.63;5016770;28;20093;-77
2021/08/18 11:18:03;;;;;;;4.18;1.92;;;;;;;22.23;45.91;100423.75;5007078;28;20116;-77
2021/08/18 11:20:30;;;;;;;3.85;2.30;;;;;;;22.29;45.78;100416.84;4999689;28;20133;-76
2021/08/18 11:23:00;;;;;;;4.20;1.88;;;;;;;22.08;45.51;100403.97;5028368;28;20186;-77
2021/08/18 11:25:28;;;;;;;7.25;1.88;;;;;;;;;;5024805;28;20037;-76
2021/08/18 11:27:59;;;;;;;6.47;2.08;;;;;;;22.42;44.82;100417.16;5022291;28;20124;-79
2021/08/18 11:30:29;;;;;;;5.97;2.78;;;;;;;22.42;45.31;100409.94;5027896;28;20132;-77